createdAt,value
2022-12-14T00:01:33.135Z,14.07
2022-12-14T00:04:01.169Z,14.03
2022-12-14T00:06:30.795Z,13.70
2022-12-14T00:09:00.385Z,13.70
2022-12-14T00:11:29.458Z,14.73
2022-12-14T00:13:59.344Z,14.73
2022-12-14T00:16:30.859Z,14.33
2022-12-14T00:19:00.466Z,14.10
2022-12-14T00:21:29.126Z,13.80
2022-12-14T00:23:59.437Z,15.90
2022-12-14T00:26:29.208Z,16.10
2022-12-14T00:28:59.185Z,14.68
2022-12-14T00:31:28.768Z,14.40
2022-12-14T00:33:56.888Z,15.53
2022-12-14T00:36:25.246Z,15.93
2022-12-14T00:38:53.212Z,13.67
2022-12-14T00:41:22.262Z,14.80
2022-12-14T00:43:50.303Z,14.97
2022-12-14T00:46:18.480Z,15.07
2022-12-14T00:48:48.244Z,14.83
2022-12-14T00:51:16.292Z,15.70
2022-12-14T00:53:45.421Z,15.80
2022-12-14T00:56:13.714Z,15.60
2022-12-14T00:58:41.688Z,13.80
2022-12-14T01:01:13.572Z,16.17
2022-12-14T01:03:42.750Z,14.93
2022-12-14T01:06:17.331Z,15.53
2022-12-14T01:08:45.337Z,14.13
2022-12-14T01:11:14.495Z,14.07
2022-12-14T01:13:42.759Z,15.30
2022-12-14T01:16:17.182Z,13.93
2022-12-14T01:18:45.295Z,14.63
2022-12-14T01:21:16.762Z,14.37
2022-12-14T01:23:46.461Z,13.97
2022-12-14T01:26:16.470Z,13.50
2022-12-14T01:28:45.390Z,14.57
2022-12-14T01:31:16.211Z,14.57
2022-12-14T01:33:44.939Z,14.20
2022-12-14T01:36:15.083Z,14.03
2022-12-14T01:38:44.714Z,14.77
2022-12-14T01:41:24.453Z,15.83
2022-12-14T01:43:54.622Z,14.30
2022-12-14T01:46:29.951Z,13.88
2022-12-14T01:49:03.226Z,14.20
2022-12-14T01:51:32.929Z,14.87
2022-12-14T01:54:05.105Z,14.13
2022-12-14T01:57:23.234Z,13.83
2022-12-14T01:59:51.555Z,14.27
2022-12-14T02:02:22.157Z,14.23
2022-12-14T02:04:54.631Z,14.65
2022-12-14T02:07:23.950Z,14.23
2022-12-14T02:09:56.290Z,14.10
2022-12-14T02:12:30.497Z,14.87
2022-12-14T02:14:59.780Z,15.40
2022-12-14T02:17:29.051Z,13.53
2022-12-14T02:19:58.661Z,14.90
2022-12-14T02:22:51.323Z,13.97
2022-12-14T02:25:52.866Z,16.23
2022-12-14T02:28:38.627Z,15.40
2022-12-14T02:31:16.657Z,14.50
2022-12-14T02:33:52.472Z,14.40
2022-12-14T02:36:28.217Z,15.53
2022-12-14T02:39:06.234Z,15.57
2022-12-14T02:41:41.465Z,15.50
2022-12-14T02:44:19.272Z,13.83
2022-12-14T02:46:56.929Z,15.33
2022-12-14T02:49:42.134Z,14.87
2022-12-14T02:52:28.528Z,15.57
2022-12-14T02:55:03.646Z,15.07
2022-12-14T02:57:38.051Z,15.83
2022-12-14T03:00:07.789Z,15.83
2022-12-14T03:02:39.628Z,14.63
2022-12-14T03:05:11.124Z,15.40
2022-12-14T03:07:45.942Z,14.33
2022-12-14T03:10:26.695Z,14.77
2022-12-14T03:12:59.038Z,15.20
2022-12-14T03:15:29.546Z,15.27
2022-12-14T03:18:03.162Z,15.15
2022-12-14T03:20:35.679Z,15.17
2022-12-14T03:23:08.283Z,15.60
2022-12-14T03:25:41.757Z,14.07
2022-12-14T03:28:16.398Z,13.90
2022-12-14T03:31:06.039Z,14.27
2022-12-14T03:33:38.016Z,15.03
2022-12-14T03:36:16.051Z,14.10
2022-12-14T03:38:45.778Z,13.57
2022-12-14T03:41:20.280Z,14.90
2022-12-14T03:44:04.616Z,13.80
2022-12-14T03:46:39.593Z,14.13
2022-12-14T03:49:17.717Z,14.13
2022-12-14T03:51:57.787Z,14.70
2022-12-14T03:54:34.074Z,14.57
2022-12-14T03:57:08.527Z,14.53
2022-12-14T03:59:46.088Z,13.67
2022-12-14T04:02:23.480Z,15.20
2022-12-14T04:05:00.837Z,13.40
2022-12-14T04:07:38.456Z,14.63
2022-12-14T04:10:32.700Z,13.33
2022-12-14T04:13:45.267Z,14.60
2022-12-14T04:16:41.519Z,13.37
2022-12-14T04:19:17.434Z,13.43
2022-12-14T04:26:43.786Z,10.37
2022-12-14T04:29:35.515Z,12.83
2022-12-14T04:32:11.051Z,13.03
2022-12-14T04:34:43.425Z,14.17
2022-12-14T04:37:16.043Z,12.90
2022-12-14T04:39:50.336Z,13.07
2022-12-14T04:42:24.058Z,11.73
2022-12-14T04:44:56.347Z,13.73
2022-12-14T04:47:30.375Z,13.03
2022-12-14T04:50:03.979Z,13.20
2022-12-14T04:52:35.834Z,12.40
2022-12-14T04:55:10.217Z,11.97
2022-12-14T04:57:45.340Z,12.97
2022-12-14T05:00:14.433Z,14.13
2022-12-14T05:03:03.980Z,12.67
2022-12-14T05:05:38.245Z,12.10
2022-12-14T05:08:12.785Z,13.07
2022-12-14T05:10:44.731Z,11.57
2022-12-14T05:13:19.883Z,12.57
2022-12-14T05:15:51.209Z,14.43
2022-12-14T05:18:21.055Z,14.30
2022-12-14T05:20:50.511Z,13.83
2022-12-14T05:23:19.336Z,14.77
2022-12-14T05:25:49.201Z,13.80
2022-12-14T05:28:18.634Z,16.07
2022-12-14T05:30:48.930Z,16.07
2022-12-14T05:33:19.853Z,14.63
2022-12-14T05:37:01.434Z,15.60
2022-12-14T05:39:29.440Z,16.17
2022-12-14T05:41:57.620Z,16.67
2022-12-14T05:44:27.014Z,17.43
2022-12-14T05:46:55.946Z,19.30
2022-12-14T05:49:23.978Z,19.37
2022-12-14T05:51:52.055Z,17.90
2022-12-14T05:54:20.012Z,17.87
2022-12-14T05:56:48.000Z,16.97
2022-12-14T05:59:17.311Z,19.97
2022-12-14T06:01:49.087Z,19.50
2022-12-14T06:04:19.938Z,19.37
2022-12-14T06:06:48.053Z,18.90
2022-12-14T06:09:17.384Z,19.67
2022-12-14T06:11:47.214Z,17.80
2022-12-14T06:14:16.893Z,18.27
2022-12-14T06:16:47.711Z,18.73
2022-12-14T06:19:16.022Z,19.60
2022-12-14T06:21:44.907Z,20.13
2022-12-14T06:24:13.726Z,18.13
2022-12-14T06:26:42.585Z,18.90
2022-12-14T06:29:15.892Z,18.90
2022-12-14T06:31:43.911Z,18.57
2022-12-14T06:34:13.887Z,17.83
2022-12-14T06:36:43.666Z,19.73
2022-12-14T06:39:14.153Z,18.83
2022-12-14T06:41:42.492Z,20.52
2022-12-14T06:44:12.776Z,17.80
2022-12-14T06:46:40.926Z,19.60
2022-12-14T06:49:09.642Z,18.43
2022-12-14T06:51:41.412Z,18.00
2022-12-14T06:54:11.564Z,17.27
2022-12-14T06:56:40.746Z,18.58
2022-12-14T06:59:34.327Z,17.90
2022-12-14T07:02:02.460Z,16.80
2022-12-14T07:04:31.232Z,18.00
2022-12-14T07:07:00.652Z,16.50
2022-12-14T07:09:28.660Z,18.50
2022-12-14T07:11:56.727Z,18.43
2022-12-14T07:14:25.402Z,16.00
2022-12-14T07:16:53.369Z,15.63
2022-12-14T07:23:33.323Z,15.97
2022-12-14T07:26:06.218Z,17.07
2022-12-14T07:28:35.604Z,16.07
2022-12-14T07:31:04.348Z,15.67
2022-12-14T07:33:32.591Z,17.07
2022-12-14T07:36:05.470Z,19.10
2022-12-14T07:38:35.290Z,18.20
2022-12-14T07:41:05.622Z,16.57
2022-12-14T07:43:33.949Z,15.95
2022-12-14T07:46:03.454Z,16.17
2022-12-14T07:48:33.067Z,18.07
2022-12-14T07:51:06.389Z,18.07
2022-12-14T07:53:36.558Z,16.27
2022-12-14T07:56:06.102Z,15.43
2022-12-14T07:58:34.975Z,14.10
2022-12-14T08:01:12.779Z,16.37
2022-12-14T08:03:42.182Z,16.30
2022-12-14T08:06:11.742Z,15.67
2022-12-14T08:08:41.272Z,16.03
2022-12-14T08:11:10.300Z,16.60
2022-12-14T08:13:39.096Z,14.67
2022-12-14T08:16:09.556Z,14.20
2022-12-14T08:18:37.863Z,13.57
2022-12-14T08:21:07.969Z,15.37
2022-12-14T08:23:36.503Z,15.60
2022-12-14T08:26:07.454Z,15.17
2022-12-14T08:28:36.830Z,16.33
2022-12-14T08:31:06.714Z,17.97
2022-12-14T08:33:35.593Z,14.87
2022-12-14T08:36:08.552Z,15.53
2022-12-14T08:38:36.694Z,14.17
2022-12-14T08:41:07.939Z,14.00
2022-12-14T08:43:36.415Z,14.97
2022-12-14T08:46:05.027Z,15.33
2022-12-14T08:48:33.305Z,17.83
2022-12-14T08:51:05.202Z,15.60
2022-12-14T08:53:33.670Z,15.30
2022-12-14T08:56:08.363Z,15.77
2022-12-14T08:58:38.134Z,13.83
2022-12-14T09:01:08.872Z,13.73
2022-12-14T09:03:37.014Z,15.45
2022-12-14T09:06:05.929Z,15.57
2022-12-14T09:08:34.130Z,15.27
2022-12-14T09:11:02.811Z,15.80
2022-12-14T09:13:32.964Z,13.67
2022-12-14T09:16:03.285Z,13.85
2022-12-14T09:18:32.428Z,13.27
2022-12-14T09:21:01.828Z,16.10
2022-12-14T09:23:31.394Z,15.87
2022-12-14T09:26:01.497Z,14.77
2022-12-14T09:28:30.395Z,13.83
2022-12-14T09:31:01.847Z,15.13
2022-12-14T09:33:31.325Z,13.70
2022-12-14T09:36:03.673Z,13.10
2022-12-14T09:38:32.996Z,12.97
2022-12-14T09:41:07.012Z,13.03
2022-12-14T09:43:42.322Z,14.77
2022-12-14T09:46:22.686Z,14.30
2022-12-14T09:48:52.185Z,15.43
2022-12-14T09:51:23.869Z,12.37
2022-12-14T09:54:06.587Z,15.40
2022-12-14T09:56:35.017Z,12.67
2022-12-14T09:59:04.629Z,13.53
2022-12-14T10:07:47.376Z,13.50
2022-12-14T10:10:20.929Z,11.83
2022-12-14T10:12:58.424Z,12.83
2022-12-14T10:15:33.579Z,14.87
2022-12-14T10:18:58.783Z,13.53
2022-12-14T10:21:16.813Z,12.50
2022-12-14T10:23:53.655Z,11.55
2022-12-14T10:26:27.387Z,13.70
2022-12-14T10:29:01.845Z,12.93
2022-12-14T10:31:36.907Z,14.73
2022-12-14T10:34:17.833Z,14.70
2022-12-14T10:36:54.244Z,15.13
2022-12-14T10:39:27.986Z,14.13
2022-12-14T10:42:25.511Z,14.53
2022-12-14T10:45:38.632Z,15.10
2022-12-14T10:47:54.766Z,12.03
2022-12-14T10:50:35.690Z,14.00
2022-12-14T10:53:06.291Z,11.90
2022-12-14T10:55:37.238Z,13.82
2022-12-14T10:58:05.268Z,13.50
2022-12-14T11:00:33.362Z,13.80
2022-12-14T11:03:01.487Z,12.90
2022-12-14T11:05:37.726Z,11.57
2022-12-14T11:08:08.157Z,12.17
2022-12-14T11:10:39.525Z,13.55
2022-12-14T11:13:16.188Z,15.23
2022-12-14T11:15:45.751Z,12.17
2022-12-14T11:18:28.688Z,11.53
2022-12-14T11:21:00.562Z,13.07
2022-12-14T11:23:31.762Z,14.20
2022-12-14T11:26:02.258Z,13.87
2022-12-14T11:28:37.433Z,12.65
2022-12-14T11:31:09.685Z,11.83
2022-12-14T11:33:49.789Z,13.43
2022-12-14T11:36:28.184Z,12.80
2022-12-14T11:38:57.451Z,13.10
2022-12-14T11:41:27.131Z,12.47
2022-12-14T11:44:06.877Z,12.70
2022-12-14T11:46:52.264Z,12.97
2022-12-14T11:49:31.227Z,12.87
2022-12-14T11:52:03.790Z,12.57
2022-12-14T11:54:32.764Z,10.80
2022-12-14T11:57:04.068Z,13.23
2022-12-14T11:59:40.158Z,10.67
2022-12-14T12:02:17.922Z,11.47
2022-12-14T12:04:49.283Z,11.40
2022-12-14T12:07:26.613Z,10.80
2022-12-14T12:09:55.911Z,11.60
2022-12-14T12:12:24.539Z,11.70
2022-12-14T12:14:58.846Z,10.07
2022-12-14T12:17:41.541Z,11.80
2022-12-14T12:20:23.202Z,11.40
2022-12-14T12:22:58.165Z,10.70
2022-12-14T12:25:37.031Z,11.73
2022-12-14T12:28:15.709Z,11.20
2022-12-14T12:30:48.926Z,12.63
2022-12-14T12:33:30.208Z,12.20
2022-12-14T12:38:43.156Z,11.20
2022-12-14T12:41:28.197Z,11.40
2022-12-14T12:44:01.980Z,11.23
2022-12-14T12:46:35.849Z,10.57
2022-12-14T12:49:13.922Z,12.10
2022-12-14T12:51:47.735Z,11.10
2022-12-14T12:54:22.809Z,11.70
2022-12-14T12:56:53.045Z,11.87
2022-12-14T12:59:24.365Z,11.50
2022-12-14T13:01:56.251Z,12.07
2022-12-14T13:04:32.280Z,11.60
2022-12-14T13:07:05.169Z,12.67
2022-12-14T13:09:40.741Z,11.60
2022-12-14T13:12:26.466Z,11.93
2022-12-14T13:14:57.499Z,11.27
2022-12-14T13:17:31.678Z,12.05
2022-12-14T13:20:01.605Z,10.43
2022-12-14T13:22:32.631Z,12.40
2022-12-14T13:25:09.811Z,12.10
2022-12-14T13:27:56.694Z,12.60
2022-12-14T13:30:40.335Z,11.30
2022-12-14T13:33:34.205Z,13.87
2022-12-14T13:36:31.431Z,13.67
2022-12-14T13:39:19.182Z,11.47
2022-12-14T13:41:56.920Z,14.50
2022-12-14T13:44:43.518Z,13.43
2022-12-14T13:47:15.943Z,15.57
2022-12-14T13:50:18.484Z,14.97
2022-12-14T13:52:43.889Z,13.73
2022-12-14T13:55:35.448Z,13.40
2022-12-14T13:58:21.859Z,14.00
2022-12-14T14:00:58.570Z,13.27
2022-12-14T14:03:47.731Z,14.87
2022-12-14T14:06:22.122Z,13.83
2022-12-14T14:08:51.777Z,15.33
2022-12-14T14:11:45.747Z,11.63
2022-12-14T14:14:23.518Z,13.33
2022-12-14T14:16:54.895Z,13.30
2022-12-14T14:19:25.672Z,11.77
2022-12-14T14:22:23.766Z,12.05
2022-12-14T14:24:58.293Z,10.63
2022-12-14T14:27:29.932Z,11.53
2022-12-14T14:29:59.497Z,10.53
2022-12-14T14:32:54.238Z,11.83
2022-12-14T14:35:27.404Z,12.37
2022-12-14T14:37:59.376Z,11.50
2022-12-14T14:40:51.359Z,11.77
2022-12-14T14:43:29.453Z,11.32
2022-12-14T14:46:03.157Z,11.23
2022-12-14T14:48:35.043Z,12.67
2022-12-14T14:51:16.408Z,13.33
2022-12-14T14:53:45.037Z,12.87
2022-12-14T14:56:36.117Z,12.27
2022-12-14T14:59:51.930Z,13.65
2022-12-14T15:02:30.551Z,13.43
2022-12-14T15:05:17.462Z,11.10
2022-12-14T15:07:48.312Z,10.53
2022-12-14T15:10:25.444Z,10.70
2022-12-14T15:12:58.154Z,11.87
2022-12-14T15:15:35.794Z,12.90
2022-12-14T15:18:17.994Z,11.27
2022-12-14T15:20:58.789Z,11.70
2022-12-14T15:23:33.328Z,11.65
2022-12-14T15:26:03.573Z,10.57
2022-12-14T15:28:34.255Z,12.88
2022-12-14T15:31:02.365Z,9.82
2022-12-14T15:33:34.356Z,11.23
2022-12-14T15:36:08.019Z,11.50
2022-12-14T15:38:38.028Z,10.40
2022-12-14T15:41:07.952Z,10.60
2022-12-14T15:43:43.342Z,11.83
2022-12-14T15:46:17.548Z,9.67
2022-12-14T15:48:45.930Z,11.37
2022-12-14T15:51:17.983Z,12.73
2022-12-14T15:53:49.811Z,11.27
2022-12-14T15:56:26.854Z,13.20
2022-12-14T15:58:58.870Z,12.00
2022-12-14T16:01:31.963Z,11.40
2022-12-14T16:04:04.860Z,12.83
2022-12-14T16:06:38.595Z,12.57
2022-12-14T16:09:09.456Z,11.63
2022-12-14T16:11:41.894Z,13.73
2022-12-14T16:14:21.132Z,13.23
2022-12-14T16:16:49.977Z,14.03
2022-12-14T16:19:27.936Z,12.13
2022-12-14T16:22:14.361Z,13.07
2022-12-14T16:24:59.028Z,12.67
2022-12-14T16:27:28.059Z,13.07
2022-12-14T16:30:17.915Z,15.13
2022-12-14T16:32:49.867Z,13.03
2022-12-14T16:35:23.669Z,12.87
2022-12-14T16:37:53.796Z,13.57
2022-12-14T16:40:27.737Z,14.50
2022-12-14T16:42:55.951Z,11.67
2022-12-14T16:46:09.350Z,12.47
2022-12-14T16:48:41.651Z,13.33
2022-12-14T16:52:05.744Z,12.07
2022-12-14T16:54:27.614Z,11.83
2022-12-14T16:57:01.717Z,11.23
2022-12-14T16:59:38.023Z,13.17
2022-12-14T17:02:26.319Z,12.00
2022-12-14T17:04:55.198Z,14.07
2022-12-14T17:07:25.923Z,13.60
2022-12-14T17:09:56.309Z,14.13
2022-12-14T17:12:26.189Z,13.70
2022-12-14T17:14:54.315Z,12.57
2022-12-14T17:17:32.098Z,14.57
2022-12-14T17:20:00.813Z,12.53
2022-12-14T17:22:31.463Z,13.80
2022-12-14T17:25:01.110Z,13.48
2022-12-14T17:27:29.676Z,13.00
2022-12-14T17:29:58.091Z,13.37
2022-12-14T17:32:31.487Z,13.30
2022-12-14T17:34:59.934Z,13.00
2022-12-14T17:37:34.176Z,12.90
2022-12-14T17:40:05.977Z,12.50
2022-12-14T17:42:34.408Z,12.63
2022-12-14T17:45:02.442Z,12.43
2022-12-14T17:47:31.892Z,12.73
2022-12-14T17:49:59.893Z,13.67
2022-12-14T17:52:31.870Z,12.67
2022-12-14T17:55:00.480Z,13.10
2022-12-14T17:57:28.595Z,15.07
2022-12-14T18:00:10.536Z,13.97
2022-12-14T18:02:40.833Z,13.40
2022-12-14T18:05:20.979Z,12.80
2022-12-14T18:07:49.641Z,13.47
2022-12-14T18:10:19.613Z,15.10
2022-12-14T18:12:47.947Z,12.43
2022-12-14T18:15:19.653Z,11.23
2022-12-14T18:17:49.549Z,9.57
2022-12-14T18:20:18.569Z,9.97
2022-12-14T18:22:49.730Z,9.93
2022-12-14T18:25:27.602Z,9.53
2022-12-14T18:27:55.835Z,10.90
2022-12-14T18:30:23.893Z,9.50
2022-12-14T18:32:53.618Z,8.83
2022-12-14T18:35:23.464Z,9.50
2022-12-14T18:37:52.020Z,8.60
2022-12-14T18:40:23.569Z,8.63
2022-12-14T18:42:51.782Z,9.30
2022-12-14T18:45:21.881Z,8.63
2022-12-14T18:47:55.475Z,8.87
2022-12-14T18:50:24.459Z,8.00
2022-12-14T18:52:53.020Z,8.70
2022-12-14T18:55:23.846Z,7.90
2022-12-14T18:57:54.501Z,8.27
2022-12-14T19:00:24.570Z,8.23
2022-12-14T19:02:58.116Z,8.20
2022-12-14T19:05:27.016Z,6.70
2022-12-14T19:07:56.942Z,8.10
2022-12-14T19:10:31.162Z,7.33
2022-12-14T19:12:59.867Z,7.50
2022-12-14T19:15:30.699Z,7.53
2022-12-14T19:18:00.941Z,7.38
2022-12-14T19:20:30.791Z,8.00
2022-12-14T19:22:59.084Z,7.87
2022-12-14T19:25:27.153Z,7.20
2022-12-14T19:30:45.217Z,7.37
2022-12-14T19:33:14.883Z,7.23
2022-12-14T19:35:43.717Z,7.27
2022-12-14T19:38:16.264Z,8.07
2022-12-14T19:40:46.552Z,7.07
2022-12-14T19:43:15.402Z,8.00
2022-12-14T19:45:44.642Z,7.37
2022-12-14T19:48:14.106Z,7.47
2022-12-14T19:50:42.442Z,7.53
2022-12-14T19:53:10.462Z,6.90
2022-12-14T19:55:38.709Z,6.77
2022-12-14T19:58:06.744Z,6.13
2022-12-14T20:00:34.877Z,6.83
2022-12-14T20:03:03.079Z,6.57
2022-12-14T20:05:32.626Z,6.30
2022-12-14T20:08:00.619Z,5.10
2022-12-14T20:10:28.681Z,6.07
2022-12-14T20:12:56.662Z,4.27
2022-12-14T20:15:24.738Z,5.40
2022-12-14T20:17:52.826Z,4.23
2022-12-14T20:20:22.871Z,4.70
2022-12-14T20:22:52.450Z,4.67
2022-12-14T20:25:20.717Z,5.20
2022-12-14T20:27:48.752Z,4.77
2022-12-14T20:30:16.801Z,5.33
2022-12-14T20:32:45.106Z,5.47
2022-12-14T20:35:18.751Z,4.00
2022-12-14T20:37:47.293Z,5.70
2022-12-14T20:40:16.784Z,4.77
2022-12-14T20:42:44.875Z,4.20
2022-12-14T20:45:12.849Z,4.70
2022-12-14T20:47:40.971Z,4.10
2022-12-14T20:50:09.410Z,5.20
2022-12-14T20:52:38.333Z,5.03
2022-12-14T20:55:06.794Z,4.87
2022-12-14T20:57:36.225Z,3.57
2022-12-14T21:00:06.136Z,4.27
2022-12-14T21:02:34.341Z,5.53
2022-12-14T21:05:02.587Z,4.67
2022-12-14T21:07:32.670Z,4.80
2022-12-14T21:10:00.843Z,4.00
2022-12-14T21:12:28.943Z,5.90
2022-12-14T21:14:59.475Z,4.63
2022-12-14T21:17:29.844Z,4.63
2022-12-14T21:19:58.410Z,4.43
2022-12-14T21:22:28.885Z,6.30
2022-12-14T21:25:05.800Z,4.75
2022-12-14T21:27:36.059Z,6.43
2022-12-14T21:30:06.896Z,5.70
2022-12-14T21:32:36.744Z,5.55
2022-12-14T21:35:05.783Z,4.87
2022-12-14T21:37:33.865Z,6.50
2022-12-14T21:40:03.745Z,5.70
2022-12-14T21:42:30.832Z,5.30
2022-12-14T21:44:59.054Z,6.00
2022-12-14T21:47:30.395Z,5.87
2022-12-14T21:49:58.753Z,6.30
2022-12-14T21:52:28.748Z,6.43
2022-12-14T21:54:58.919Z,6.27
2022-12-14T21:57:50.823Z,6.55
2022-12-14T22:00:20.026Z,6.37
2022-12-14T22:02:49.793Z,6.60
2022-12-14T22:05:20.919Z,6.40
2022-12-14T22:09:06.827Z,5.72
2022-12-14T22:11:35.556Z,4.40
2022-12-14T22:14:03.536Z,5.07
2022-12-14T22:16:33.354Z,5.50
2022-12-14T22:19:02.994Z,5.43
2022-12-14T22:21:30.998Z,6.20
2022-12-14T22:23:59.382Z,5.67
2022-12-14T22:26:27.463Z,5.63
2022-12-14T22:28:55.546Z,5.67
2022-12-14T22:31:23.646Z,6.07
2022-12-14T22:33:55.027Z,5.37
2022-12-14T22:36:25.213Z,4.73
2022-12-14T22:38:53.486Z,5.53
2022-12-14T22:41:21.854Z,5.50
2022-12-14T22:43:54.664Z,5.97
2022-12-14T22:46:22.734Z,5.17
2022-12-14T22:48:51.087Z,5.83
2022-12-14T22:51:19.799Z,5.10
2022-12-14T22:53:50.755Z,5.43
2022-12-14T22:56:24.921Z,5.03
2022-12-14T22:58:58.182Z,4.93
2022-12-14T23:01:26.334Z,4.07
2022-12-14T23:03:54.534Z,6.07
2022-12-14T23:06:22.754Z,4.63
2022-12-14T23:09:10.005Z,4.13
2022-12-14T23:11:55.595Z,4.10
2022-12-14T23:14:41.593Z,3.67
2022-12-14T23:17:27.603Z,5.23
2022-12-14T23:20:13.183Z,4.30
2022-12-14T23:22:58.614Z,4.80
2022-12-14T23:25:45.904Z,5.00
2022-12-14T23:28:31.306Z,5.20
2022-12-14T23:31:17.218Z,4.10
2022-12-14T23:34:03.061Z,4.60
2022-12-14T23:36:48.596Z,4.77
2022-12-14T23:39:34.390Z,4.40
2022-12-14T23:43:11.050Z,4.30
2022-12-14T23:45:57.998Z,4.90
2022-12-14T23:48:43.230Z,4.53
2022-12-14T23:51:28.626Z,4.10
2022-12-14T23:54:14.060Z,4.07
2022-12-14T23:56:59.613Z,3.97
2022-12-14T23:59:49.544Z,4.90
